ミラノ/マルペンサ の空港の天気 - METARとTAF

ミラノ・マルペンサ国際空港 ( LIMC / MXP ) - イタリア ミラノ
飛行場実況気象(Metar)
観測時間11/24 17:50 CET (11/24 16:50 UTC)
風向・風速不定 1m/s
視程10km以上
天気現象
なし
気温7℃
湿度61%
気圧1026hPa
METARLIMC 241650Z VRB01KT CAVOK 07/M00 Q1026 NOSIG
過去の天気等 Google飛行場航空写真 Wunderground天気予報

過去48時間のMETAR

飛行場予報(TAF)
発表時間: 11/24 12:00 CET (11/24 11:00 UTC)
予報対象時間: 24日13時 CET ~ 25日19時 CET
風向・風速不定 2m/s
視程10km以上
なし
25日1時 CET ~ 25日7時 CET に一時的に
視程4000m
天気現象もや
TAF LIMC 241100Z 2412/2518 VRB04KT CAVOK
TEMPO 2500/2506 4000 BR